sensor_id;sensor_type;location;lat;lon;timestamp;temperature;humidity
14378;DHT22;7272;53.668;9.578;2022-10-16T00:01:10;15.00;99.90
14378;DHT22;7272;53.668;9.578;2022-10-16T00:04:13;15.00;99.90
14378;DHT22;7272;53.668;9.578;2022-10-16T00:07:15;15.00;99.90
14378;DHT22;7272;53.668;9.578;2022-10-16T00:10:17;14.90;99.90
14378;DHT22;7272;53.668;9.578;2022-10-16T00:13:19;14.90;99.90
14378;DHT22;7272;53.668;9.578;2022-10-16T00:16:23;15.10;99.90
14378;DHT22;7272;53.668;9.578;2022-10-16T00:19:26;15.10;99.90
14378;DHT22;7272;53.668;9.578;2022-10-16T00:22:28;15.00;99.90
14378;DHT22;7272;53.668;9.578;2022-10-16T00:25:30;15.00;99.90
14378;DHT22;7272;53.668;9.578;2022-10-16T00:28:34;15.00;99.90
14378;DHT22;7272;53.668;9.578;2022-10-16T00:31:39;15.00;99.90
14378;DHT22;7272;53.668;9.578;2022-10-16T00:34:41;15.00;99.90
14378;DHT22;7272;53.668;9.578;2022-10-16T00:37:44;15.00;99.90
14378;DHT22;7272;53.668;9.578;2022-10-16T00:40:46;15.00;99.90
14378;DHT22;7272;53.668;9.578;2022-10-16T00:43:50;15.00;99.90
14378;DHT22;7272;53.668;9.578;2022-10-16T00:46:54;15.10;99.90
14378;DHT22;7272;53.668;9.578;2022-10-16T00:49:59;15.00;99.90
14378;DHT22;7272;53.668;9.578;2022-10-16T00:53:03;15.00;99.90
14378;DHT22;7272;53.668;9.578;2022-10-16T00:56:06;15.00;99.90
14378;DHT22;7272;53.668;9.578;2022-10-16T00:59:14;15.00;99.90
14378;DHT22;7272;53.668;9.578;2022-10-16T01:02:18;15.00;99.90
14378;DHT22;7272;53.668;9.578;2022-10-16T01:05:21;14.90;99.90
14378;DHT22;7272;53.668;9.578;2022-10-16T01:08:29;14.90;99.90
14378;DHT22;7272;53.668;9.578;2022-10-16T01:11:36;15.00;99.90
14378;DHT22;7272;53.668;9.578;2022-10-16T01:14:45;15.00;99.90
14378;DHT22;7272;53.668;9.578;2022-10-16T01:17:56;14.90;99.90
14378;DHT22;7272;53.668;9.578;2022-10-16T01:21:02;14.90;99.90
14378;DHT22;7272;53.668;9.578;2022-10-16T01:24:11;14.90;99.90
14378;DHT22;7272;53.668;9.578;2022-10-16T01:27:21;14.80;99.90
14378;DHT22;7272;53.668;9.578;2022-10-16T01:30:29;14.70;99.90
14378;DHT22;7272;53.668;9.578;2022-10-16T01:33:38;14.80;99.90
14378;DHT22;7272;53.668;9.578;2022-10-16T01:36:46;14.80;99.90
14378;DHT22;7272;53.668;9.578;2022-10-16T01:39:50;14.70;99.90
14378;DHT22;7272;53.668;9.578;2022-10-16T01:43:05;14.60;99.90
14378;DHT22;7272;53.668;9.578;2022-10-16T01:46:10;14.60;99.90
14378;DHT22;7272;53.668;9.578;2022-10-16T01:49:16;14.60;99.90
14378;DHT22;7272;53.668;9.578;2022-10-16T01:52:23;14.50;99.90
14378;DHT22;7272;53.668;9.578;2022-10-16T01:55:30;14.50;99.90
14378;DHT22;7272;53.668;9.578;2022-10-16T01:58:37;14.50;99.90
14378;DHT22;7272;53.668;9.578;2022-10-16T02:01:45;14.40;99.90
14378;DHT22;7272;53.668;9.578;2022-10-16T02:04:53;14.40;99.90
14378;DHT22;7272;53.668;9.578;2022-10-16T02:07:56;14.30;99.90
14378;DHT22;7272;53.668;9.578;2022-10-16T02:11:00;14.40;99.90
14378;DHT22;7272;53.668;9.578;2022-10-16T02:14:05;14.30;99.90
14378;DHT22;7272;53.668;9.578;2022-10-16T02:17:13;14.30;99.90
14378;DHT22;7272;53.668;9.578;2022-10-16T02:20:16;14.30;99.90
14378;DHT22;7272;53.668;9.578;2022-10-16T02:23:24;14.20;99.90
14378;DHT22;7272;53.668;9.578;2022-10-16T02:26:33;14.30;99.90
14378;DHT22;7272;53.668;9.578;2022-10-16T02:29:40;14.40;99.90
14378;DHT22;7272;53.668;9.578;2022-10-16T02:32:46;14.50;99.90
14378;DHT22;7272;53.668;9.578;2022-10-16T02:35:50;14.50;99.90
14378;DHT22;7272;53.668;9.578;2022-10-16T02:38:53;14.40;99.90
14378;DHT22;7272;53.668;9.578;2022-10-16T02:41:55;14.30;99.90
14378;DHT22;7272;53.668;9.578;2022-10-16T02:44:59;14.20;99.90
14378;DHT22;7272;53.668;9.578;2022-10-16T02:48:01;14.20;99.90
14378;DHT22;7272;53.668;9.578;2022-10-16T02:51:03;14.10;99.90
14378;DHT22;7272;53.668;9.578;2022-10-16T02:54:06;14.10;99.90
14378;DHT22;7272;53.668;9.578;2022-10-16T02:57:08;14.10;99.90
14378;DHT22;7272;53.668;9.578;2022-10-16T03:00:14;14.10;99.90
14378;DHT22;7272;53.668;9.578;2022-10-16T03:03:16;14.00;99.90
14378;DHT22;7272;53.668;9.578;2022-10-16T03:06:18;13.90;99.90
14378;DHT22;7272;53.668;9.578;2022-10-16T03:09:21;13.90;99.90
14378;DHT22;7272;53.668;9.578;2022-10-16T03:12:23;13.90;99.90
14378;DHT22;7272;53.668;9.578;2022-10-16T03:15:26;13.80;99.90
14378;DHT22;7272;53.668;9.578;2022-10-16T03:18:28;13.80;99.90
14378;DHT22;7272;53.668;9.578;2022-10-16T03:21:31;13.80;99.90
14378;DHT22;7272;53.668;9.578;2022-10-16T03:24:33;13.70;99.90
14378;DHT22;7272;53.668;9.578;2022-10-16T03:27:35;13.70;99.90
14378;DHT22;7272;53.668;9.578;2022-10-16T03:30:38;13.80;99.90
14378;DHT22;7272;53.668;9.578;2022-10-16T03:33:41;13.80;99.90
14378;DHT22;7272;53.668;9.578;2022-10-16T03:36:43;13.80;99.90
14378;DHT22;7272;53.668;9.578;2022-10-16T03:39:45;13.80;99.90
14378;DHT22;7272;53.668;9.578;2022-10-16T03:42:47;13.80;99.90
14378;DHT22;7272;53.668;9.578;2022-10-16T03:45:51;13.80;99.90
14378;DHT22;7272;53.668;9.578;2022-10-16T03:48:53;13.80;99.90
14378;DHT22;7272;53.668;9.578;2022-10-16T03:51:55;13.70;99.90
14378;DHT22;7272;53.668;9.578;2022-10-16T03:54:57;13.80;99.90
14378;DHT22;7272;53.668;9.578;2022-10-16T03:57:59;13.70;99.90
14378;DHT22;7272;53.668;9.578;2022-10-16T04:01:03;13.80;99.90
14378;DHT22;7272;53.668;9.578;2022-10-16T04:04:05;13.80;99.90
14378;DHT22;7272;53.668;9.578;2022-10-16T04:07:07;13.80;99.90
14378;DHT22;7272;53.668;9.578;2022-10-16T04:10:10;13.80;99.90
14378;DHT22;7272;53.668;9.578;2022-10-16T04:13:12;13.80;99.90
14378;DHT22;7272;53.668;9.578;2022-10-16T04:16:15;13.80;99.90
14378;DHT22;7272;53.668;9.578;2022-10-16T04:19:18;13.80;99.90
14378;DHT22;7272;53.668;9.578;2022-10-16T04:22:20;13.80;99.90
14378;DHT22;7272;53.668;9.578;2022-10-16T04:25:22;13.80;99.90
14378;DHT22;7272;53.668;9.578;2022-10-16T04:28:24;13.80;99.90
14378;DHT22;7272;53.668;9.578;2022-10-16T04:31:28;13.80;99.90
14378;DHT22;7272;53.668;9.578;2022-10-16T04:34:30;13.80;99.90
14378;DHT22;7272;53.668;9.578;2022-10-16T04:37:32;13.70;99.90
14378;DHT22;7272;53.668;9.578;2022-10-16T04:40:34;13.80;99.90
14378;DHT22;7272;53.668;9.578;2022-10-16T04:43:37;13.80;99.90
14378;DHT22;7272;53.668;9.578;2022-10-16T04:46:40;13.80;99.90
14378;DHT22;7272;53.668;9.578;2022-10-16T04:49:43;13.80;99.90
14378;DHT22;7272;53.668;9.578;2022-10-16T04:52:45;13.90;99.90
14378;DHT22;7272;53.668;9.578;2022-10-16T04:55:47;13.90;99.90
14378;DHT22;7272;53.668;9.578;2022-10-16T04:58:49;13.90;99.90
14378;DHT22;7272;53.668;9.578;2022-10-16T05:01:53;14.00;99.90
14378;DHT22;7272;53.668;9.578;2022-10-16T05:04:55;14.10;99.90
14378;DHT22;7272;53.668;9.578;2022-10-16T05:07:57;14.10;99.90
14378;DHT22;7272;53.668;9.578;2022-10-16T05:10:59;14.20;99.90
14378;DHT22;7272;53.668;9.578;2022-10-16T05:14:02;14.10;99.90
14378;DHT22;7272;53.668;9.578;2022-10-16T05:17:06;14.10;99.90
14378;DHT22;7272;53.668;9.578;2022-10-16T05:20:08;14.10;99.90
14378;DHT22;7272;53.668;9.578;2022-10-16T05:23:10;14.10;99.90
14378;DHT22;7272;53.668;9.578;2022-10-16T05:26:13;14.20;99.90
14378;DHT22;7272;53.668;9.578;2022-10-16T05:29:15;14.20;99.90
14378;DHT22;7272;53.668;9.578;2022-10-16T05:32:18;14.20;99.90
14378;DHT22;7272;53.668;9.578;2022-10-16T05:35:21;14.30;99.90
14378;DHT22;7272;53.668;9.578;2022-10-16T05:38:23;14.30;99.90
14378;DHT22;7272;53.668;9.578;2022-10-16T05:41:25;14.30;99.90
14378;DHT22;7272;53.668;9.578;2022-10-16T05:44:28;14.30;99.90
14378;DHT22;7272;53.668;9.578;2022-10-16T05:47:31;14.20;99.90
14378;DHT22;7272;53.668;9.578;2022-10-16T05:50:33;14.20;99.90
14378;DHT22;7272;53.668;9.578;2022-10-16T05:53:37;14.20;99.90
14378;DHT22;7272;53.668;9.578;2022-10-16T05:56:39;14.20;99.90
14378;DHT22;7272;53.668;9.578;2022-10-16T05:59:41;14.20;99.90
14378;DHT22;7272;53.668;9.578;2022-10-16T06:02:45;14.20;99.90
14378;DHT22;7272;53.668;9.578;2022-10-16T06:05:47;14.10;99.90
14378;DHT22;7272;53.668;9.578;2022-10-16T06:08:49;14.10;99.90
14378;DHT22;7272;53.668;9.578;2022-10-16T06:11:52;14.10;99.90
14378;DHT22;7272;53.668;9.578;2022-10-16T06:14:54;14.10;99.90
14378;DHT22;7272;53.668;9.578;2022-10-16T06:17:57;14.10;99.90
14378;DHT22;7272;53.668;9.578;2022-10-16T06:20:59;14.10;99.90
14378;DHT22;7272;53.668;9.578;2022-10-16T06:24:02;14.10;99.90
14378;DHT22;7272;53.668;9.578;2022-10-16T06:27:06;14.10;99.90
14378;DHT22;7272;53.668;9.578;2022-10-16T06:30:09;14.10;99.90
14378;DHT22;7272;53.668;9.578;2022-10-16T06:33:13;14.10;99.90
14378;DHT22;7272;53.668;9.578;2022-10-16T06:36:16;14.10;99.90
14378;DHT22;7272;53.668;9.578;2022-10-16T06:39:19;14.20;99.90
14378;DHT22;7272;53.668;9.578;2022-10-16T06:42:21;14.20;99.90
14378;DHT22;7272;53.668;9.578;2022-10-16T06:45:23;14.30;99.90
14378;DHT22;7272;53.668;9.578;2022-10-16T06:48:28;14.30;99.90
14378;DHT22;7272;53.668;9.578;2022-10-16T06:51:30;14.40;99.90
14378;DHT22;7272;53.668;9.578;2022-10-16T06:54:34;14.50;99.90
14378;DHT22;7272;53.668;9.578;2022-10-16T06:57:36;14.50;99.90
14378;DHT22;7272;53.668;9.578;2022-10-16T07:00:38;14.60;99.90
14378;DHT22;7272;53.668;9.578;2022-10-16T07:03:43;14.60;99.90
14378;DHT22;7272;53.668;9.578;2022-10-16T07:06:45;14.60;99.90
14378;DHT22;7272;53.668;9.578;2022-10-16T07:09:47;14.70;99.90
14378;DHT22;7272;53.668;9.578;2022-10-16T07:12:49;14.90;99.90
14378;DHT22;7272;53.668;9.578;2022-10-16T07:15:52;14.90;99.90
14378;DHT22;7272;53.668;9.578;2022-10-16T07:18:56;14.90;99.90
14378;DHT22;7272;53.668;9.578;2022-10-16T07:22:00;15.00;99.90
14378;DHT22;7272;53.668;9.578;2022-10-16T07:25:02;15.10;99.90
14378;DHT22;7272;53.668;9.578;2022-10-16T07:28:04;15.20;99.90
14378;DHT22;7272;53.668;9.578;2022-10-16T07:31:09;15.20;99.90
14378;DHT22;7272;53.668;9.578;2022-10-16T07:34:15;15.20;99.90
14378;DHT22;7272;53.668;9.578;2022-10-16T07:37:17;15.20;99.90
14378;DHT22;7272;53.668;9.578;2022-10-16T07:40:19;15.20;99.90
14378;DHT22;7272;53.668;9.578;2022-10-16T07:43:21;15.30;99.90
14378;DHT22;7272;53.668;9.578;2022-10-16T07:46:24;15.30;99.90
14378;DHT22;7272;53.668;9.578;2022-10-16T07:49:27;15.20;99.90
14378;DHT22;7272;53.668;9.578;2022-10-16T07:52:29;15.50;99.90
14378;DHT22;7272;53.668;9.578;2022-10-16T07:55:31;15.70;99.90
14378;DHT22;7272;53.668;9.578;2022-10-16T07:58:34;15.70;99.90
14378;DHT22;7272;53.668;9.578;2022-10-16T08:01:38;15.80;99.90
14378;DHT22;7272;53.668;9.578;2022-10-16T08:04:41;15.80;99.90
14378;DHT22;7272;53.668;9.578;2022-10-16T08:07:48;15.70;99.90
14378;DHT22;7272;53.668;9.578;2022-10-16T08:10:50;15.60;99.90
14378;DHT22;7272;53.668;9.578;2022-10-16T08:13:52;15.60;99.90
14378;DHT22;7272;53.668;9.578;2022-10-16T08:16:55;15.60;99.90
14378;DHT22;7272;53.668;9.578;2022-10-16T08:19:58;15.60;99.90
14378;DHT22;7272;53.668;9.578;2022-10-16T08:23:00;15.60;99.90
14378;DHT22;7272;53.668;9.578;2022-10-16T08:26:05;15.60;99.90
14378;DHT22;7272;53.668;9.578;2022-10-16T08:29:07;15.60;99.90
14378;DHT22;7272;53.668;9.578;2022-10-16T08:32:09;15.60;99.90
14378;DHT22;7272;53.668;9.578;2022-10-16T08:35:13;15.80;99.90
14378;DHT22;7272;53.668;9.578;2022-10-16T08:38:15;15.90;99.90
14378;DHT22;7272;53.668;9.578;2022-10-16T08:41:29;16.20;99.90
14378;DHT22;7272;53.668;9.578;2022-10-16T08:44:53;16.50;99.90
14378;DHT22;7272;53.668;9.578;2022-10-16T08:48:10;16.70;99.90
14378;DHT22;7272;53.668;9.578;2022-10-16T08:51:22;16.90;99.90
14378;DHT22;7272;53.668;9.578;2022-10-16T08:54:28;16.80;99.90
14378;DHT22;7272;53.668;9.578;2022-10-16T08:57:31;16.80;99.90
14378;DHT22;7272;53.668;9.578;2022-10-16T09:00:34;16.80;99.90
14378;DHT22;7272;53.668;9.578;2022-10-16T09:03:55;16.80;99.90
14378;DHT22;7272;53.668;9.578;2022-10-16T09:07:06;16.80;99.90
14378;DHT22;7272;53.668;9.578;2022-10-16T09:10:22;16.90;99.90
14378;DHT22;7272;53.668;9.578;2022-10-16T09:13:29;17.10;99.90
14378;DHT22;7272;53.668;9.578;2022-10-16T09:16:34;17.30;99.90
14378;DHT22;7272;53.668;9.578;2022-10-16T09:19:44;17.40;99.90
14378;DHT22;7272;53.668;9.578;2022-10-16T09:22:51;17.50;99.90
14378;DHT22;7272;53.668;9.578;2022-10-16T09:25:55;17.60;99.90
14378;DHT22;7272;53.668;9.578;2022-10-16T09:28:57;17.70;99.90
14378;DHT22;7272;53.668;9.578;2022-10-16T09:32:10;17.80;99.90
14378;DHT22;7272;53.668;9.578;2022-10-16T09:35:15;17.90;99.90
14378;DHT22;7272;53.668;9.578;2022-10-16T09:38:25;18.00;99.90
14378;DHT22;7272;53.668;9.578;2022-10-16T09:41:28;18.10;99.90
14378;DHT22;7272;53.668;9.578;2022-10-16T09:44:31;18.30;99.90
14378;DHT22;7272;53.668;9.578;2022-10-16T09:47:39;18.60;99.90
14378;DHT22;7272;53.668;9.578;2022-10-16T09:50:44;18.70;99.90
14378;DHT22;7272;53.668;9.578;2022-10-16T09:53:59;18.60;99.90
14378;DHT22;7272;53.668;9.578;2022-10-16T09:57:06;18.30;99.90
14378;DHT22;7272;53.668;9.578;2022-10-16T10:00:09;18.30;99.90
14378;DHT22;7272;53.668;9.578;2022-10-16T10:03:12;18.30;99.90
14378;DHT22;7272;53.668;9.578;2022-10-16T10:06:21;18.40;99.90
14378;DHT22;7272;53.668;9.578;2022-10-16T10:09:27;18.50;99.90
14378;DHT22;7272;53.668;9.578;2022-10-16T10:12:31;18.60;99.90
14378;DHT22;7272;53.668;9.578;2022-10-16T10:15:41;18.70;99.90
14378;DHT22;7272;53.668;9.578;2022-10-16T10:18:43;18.80;99.90
14378;DHT22;7272;53.668;9.578;2022-10-16T10:21:46;18.90;99.90
14378;DHT22;7272;53.668;9.578;2022-10-16T10:25:15;18.90;99.90
14378;DHT22;7272;53.668;9.578;2022-10-16T10:28:44;18.90;99.90
14378;DHT22;7272;53.668;9.578;2022-10-16T10:31:53;19.00;99.90
14378;DHT22;7272;53.668;9.578;2022-10-16T10:35:08;19.10;99.90
14378;DHT22;7272;53.668;9.578;2022-10-16T10:38:24;19.20;99.90
14378;DHT22;7272;53.668;9.578;2022-10-16T10:42:04;19.20;99.90
14378;DHT22;7272;53.668;9.578;2022-10-16T10:45:17;19.40;99.90
14378;DHT22;7272;53.668;9.578;2022-10-16T10:48:30;19.40;99.90
14378;DHT22;7272;53.668;9.578;2022-10-16T10:51:49;19.50;99.90
14378;DHT22;7272;53.668;9.578;2022-10-16T10:54:57;19.60;99.90
14378;DHT22;7272;53.668;9.578;2022-10-16T11:01:40;20.10;99.90
14378;DHT22;7272;53.668;9.578;2022-10-16T11:08:26;19.90;99.90
14378;DHT22;7272;53.668;9.578;2022-10-16T11:11:34;19.70;99.90
14378;DHT22;7272;53.668;9.578;2022-10-16T11:14:44;19.60;99.90
14378;DHT22;7272;53.668;9.578;2022-10-16T11:17:50;19.50;99.90
14378;DHT22;7272;53.668;9.578;2022-10-16T11:20:57;19.40;99.90
14378;DHT22;7272;53.668;9.578;2022-10-16T11:24:06;19.40;99.90
14378;DHT22;7272;53.668;9.578;2022-10-16T11:27:15;19.60;99.90
14378;DHT22;7272;53.668;9.578;2022-10-16T11:30:22;19.80;99.90
14378;DHT22;7272;53.668;9.578;2022-10-16T11:33:30;19.50;99.90
14378;DHT22;7272;53.668;9.578;2022-10-16T11:36:38;19.30;99.90
14378;DHT22;7272;53.668;9.578;2022-10-16T11:39:42;19.10;99.90
14378;DHT22;7272;53.668;9.578;2022-10-16T11:42:50;18.90;99.90
14378;DHT22;7272;53.668;9.578;2022-10-16T11:45:57;18.60;99.90
14378;DHT22;7272;53.668;9.578;2022-10-16T11:49:06;18.50;99.90
14378;DHT22;7272;53.668;9.578;2022-10-16T11:52:17;18.80;99.90
14378;DHT22;7272;53.668;9.578;2022-10-16T11:55:23;18.90;99.90
14378;DHT22;7272;53.668;9.578;2022-10-16T11:58:35;18.70;99.90
14378;DHT22;7272;53.668;9.578;2022-10-16T12:01:43;18.50;99.90
14378;DHT22;7272;53.668;9.578;2022-10-16T12:04:53;18.40;99.90
14378;DHT22;7272;53.668;9.578;2022-10-16T12:08:07;18.60;99.90
14378;DHT22;7272;53.668;9.578;2022-10-16T12:11:23;18.80;99.90
14378;DHT22;7272;53.668;9.578;2022-10-16T12:14:37;19.10;99.90
14378;DHT22;7272;53.668;9.578;2022-10-16T12:17:41;19.40;99.90
14378;DHT22;7272;53.668;9.578;2022-10-16T12:20:54;19.40;99.90
14378;DHT22;7272;53.668;9.578;2022-10-16T12:24:02;19.10;99.90
14378;DHT22;7272;53.668;9.578;2022-10-16T12:27:17;19.00;99.90
14378;DHT22;7272;53.668;9.578;2022-10-16T12:30:24;18.90;99.90
14378;DHT22;7272;53.668;9.578;2022-10-16T12:33:30;19.00;99.90
14378;DHT22;7272;53.668;9.578;2022-10-16T12:36:34;19.10;99.90
14378;DHT22;7272;53.668;9.578;2022-10-16T12:39:37;19.30;99.90
14378;DHT22;7272;53.668;9.578;2022-10-16T12:42:39;19.40;99.90
14378;DHT22;7272;53.668;9.578;2022-10-16T12:45:42;19.40;99.90
14378;DHT22;7272;53.668;9.578;2022-10-16T12:48:45;19.50;99.90
14378;DHT22;7272;53.668;9.578;2022-10-16T12:51:49;19.60;99.90
14378;DHT22;7272;53.668;9.578;2022-10-16T12:54:51;19.70;99.90
14378;DHT22;7272;53.668;9.578;2022-10-16T12:58:04;19.80;99.90
14378;DHT22;7272;53.668;9.578;2022-10-16T13:01:16;19.90;99.90
14378;DHT22;7272;53.668;9.578;2022-10-16T13:04:30;19.80;99.90
14378;DHT22;7272;53.668;9.578;2022-10-16T13:07:48;19.70;99.90
14378;DHT22;7272;53.668;9.578;2022-10-16T13:11:01;19.60;99.90
14378;DHT22;7272;53.668;9.578;2022-10-16T13:14:23;19.60;99.90
14378;DHT22;7272;53.668;9.578;2022-10-16T13:17:33;19.70;99.90
14378;DHT22;7272;53.668;9.578;2022-10-16T13:20:51;19.90;99.90
14378;DHT22;7272;53.668;9.578;2022-10-16T13:23:59;20.00;99.90
14378;DHT22;7272;53.668;9.578;2022-10-16T13:27:09;20.00;99.90
14378;DHT22;7272;53.668;9.578;2022-10-16T13:30:17;20.00;99.90
14378;DHT22;7272;53.668;9.578;2022-10-16T13:33:26;19.80;99.90
14378;DHT22;7272;53.668;9.578;2022-10-16T13:36:43;19.60;99.90
14378;DHT22;7272;53.668;9.578;2022-10-16T13:39:46;19.70;99.90
14378;DHT22;7272;53.668;9.578;2022-10-16T13:42:49;19.80;99.90
14378;DHT22;7272;53.668;9.578;2022-10-16T13:45:56;19.90;99.90
14378;DHT22;7272;53.668;9.578;2022-10-16T13:49:00;19.80;99.90
14378;DHT22;7272;53.668;9.578;2022-10-16T13:52:04;19.90;99.90
14378;DHT22;7272;53.668;9.578;2022-10-16T13:55:10;19.90;99.90
14378;DHT22;7272;53.668;9.578;2022-10-16T13:58:14;19.80;99.90
14378;DHT22;7272;53.668;9.578;2022-10-16T14:01:18;19.70;99.90
14378;DHT22;7272;53.668;9.578;2022-10-16T14:04:21;19.80;99.90
14378;DHT22;7272;53.668;9.578;2022-10-16T14:07:26;19.80;99.90
14378;DHT22;7272;53.668;9.578;2022-10-16T14:10:30;19.90;99.90
14378;DHT22;7272;53.668;9.578;2022-10-16T14:13:37;19.90;99.90
14378;DHT22;7272;53.668;9.578;2022-10-16T14:16:41;19.80;99.90
14378;DHT22;7272;53.668;9.578;2022-10-16T14:19:46;19.80;99.90
14378;DHT22;7272;53.668;9.578;2022-10-16T14:22:59;19.80;99.90
14378;DHT22;7272;53.668;9.578;2022-10-16T14:26:12;19.80;99.90
14378;DHT22;7272;53.668;9.578;2022-10-16T14:29:18;19.80;99.90
14378;DHT22;7272;53.668;9.578;2022-10-16T14:32:23;19.80;99.90
14378;DHT22;7272;53.668;9.578;2022-10-16T14:35:28;19.80;99.90
14378;DHT22;7272;53.668;9.578;2022-10-16T14:38:33;19.70;99.90
14378;DHT22;7272;53.668;9.578;2022-10-16T14:41:43;19.60;99.90
14378;DHT22;7272;53.668;9.578;2022-10-16T14:44:46;19.40;99.90
14378;DHT22;7272;53.668;9.578;2022-10-16T14:47:52;19.30;99.90
14378;DHT22;7272;53.668;9.578;2022-10-16T14:50:55;19.10;99.90
14378;DHT22;7272;53.668;9.578;2022-10-16T14:53:58;18.90;99.90
14378;DHT22;7272;53.668;9.578;2022-10-16T14:57:02;18.90;99.90
14378;DHT22;7272;53.668;9.578;2022-10-16T15:00:10;18.80;99.90
14378;DHT22;7272;53.668;9.578;2022-10-16T15:03:15;18.80;99.90
14378;DHT22;7272;53.668;9.578;2022-10-16T15:06:17;18.80;99.90
14378;DHT22;7272;53.668;9.578;2022-10-16T15:09:21;18.70;99.90
14378;DHT22;7272;53.668;9.578;2022-10-16T15:12:23;18.80;99.90
14378;DHT22;7272;53.668;9.578;2022-10-16T15:15:35;18.80;99.90
14378;DHT22;7272;53.668;9.578;2022-10-16T15:18:38;18.70;99.90
14378;DHT22;7272;53.668;9.578;2022-10-16T15:21:40;18.60;99.90
14378;DHT22;7272;53.668;9.578;2022-10-16T15:24:44;18.60;99.90
14378;DHT22;7272;53.668;9.578;2022-10-16T15:27:46;18.50;99.90
14378;DHT22;7272;53.668;9.578;2022-10-16T15:30:49;18.40;99.90
14378;DHT22;7272;53.668;9.578;2022-10-16T15:33:52;18.30;99.90
14378;DHT22;7272;53.668;9.578;2022-10-16T15:37:02;18.20;99.90
14378;DHT22;7272;53.668;9.578;2022-10-16T15:40:07;18.20;99.90
14378;DHT22;7272;53.668;9.578;2022-10-16T15:43:10;18.00;99.90
14378;DHT22;7272;53.668;9.578;2022-10-16T15:46:12;17.90;99.90
14378;DHT22;7272;53.668;9.578;2022-10-16T15:49:16;17.80;99.90
14378;DHT22;7272;53.668;9.578;2022-10-16T15:52:18;17.70;99.90
14378;DHT22;7272;53.668;9.578;2022-10-16T15:55:21;17.70;99.90
14378;DHT22;7272;53.668;9.578;2022-10-16T15:58:23;17.70;99.90
14378;DHT22;7272;53.668;9.578;2022-10-16T16:01:26;17.50;99.90
14378;DHT22;7272;53.668;9.578;2022-10-16T16:04:30;17.40;99.90
14378;DHT22;7272;53.668;9.578;2022-10-16T16:07:33;17.30;99.90
14378;DHT22;7272;53.668;9.578;2022-10-16T16:10:36;17.20;99.90
14378;DHT22;7272;53.668;9.578;2022-10-16T16:13:39;17.10;99.90
14378;DHT22;7272;53.668;9.578;2022-10-16T16:16:42;17.10;99.90
14378;DHT22;7272;53.668;9.578;2022-10-16T16:19:45;17.00;99.90
14378;DHT22;7272;53.668;9.578;2022-10-16T16:22:47;17.00;99.90
14378;DHT22;7272;53.668;9.578;2022-10-16T16:26:05;16.90;99.90
14378;DHT22;7272;53.668;9.578;2022-10-16T16:29:08;16.80;99.90
14378;DHT22;7272;53.668;9.578;2022-10-16T16:32:10;16.80;99.90
14378;DHT22;7272;53.668;9.578;2022-10-16T16:35:14;16.70;99.90
14378;DHT22;7272;53.668;9.578;2022-10-16T16:38:16;16.70;99.90
14378;DHT22;7272;53.668;9.578;2022-10-16T16:41:20;16.70;99.90
14378;DHT22;7272;53.668;9.578;2022-10-16T16:44:23;16.70;99.90
14378;DHT22;7272;53.668;9.578;2022-10-16T16:47:25;16.60;99.90
14378;DHT22;7272;53.668;9.578;2022-10-16T16:50:27;16.50;99.90
14378;DHT22;7272;53.668;9.578;2022-10-16T16:53:29;16.50;99.90
14378;DHT22;7272;53.668;9.578;2022-10-16T16:56:33;16.40;99.90
14378;DHT22;7272;53.668;9.578;2022-10-16T16:59:35;16.30;99.90
14378;DHT22;7272;53.668;9.578;2022-10-16T17:02:37;16.30;99.90
14378;DHT22;7272;53.668;9.578;2022-10-16T17:05:46;16.20;99.90
14378;DHT22;7272;53.668;9.578;2022-10-16T17:08:56;16.20;99.90
14378;DHT22;7272;53.668;9.578;2022-10-16T17:11:59;16.20;99.90
14378;DHT22;7272;53.668;9.578;2022-10-16T17:15:02;16.20;99.90
14378;DHT22;7272;53.668;9.578;2022-10-16T17:18:04;16.10;99.90
14378;DHT22;7272;53.668;9.578;2022-10-16T17:21:07;16.10;99.90
14378;DHT22;7272;53.668;9.578;2022-10-16T17:24:10;16.00;99.90
14378;DHT22;7272;53.668;9.578;2022-10-16T17:27:14;15.90;99.90
14378;DHT22;7272;53.668;9.578;2022-10-16T17:30:16;15.80;99.90
14378;DHT22;7272;53.668;9.578;2022-10-16T17:33:18;15.70;99.90
14378;DHT22;7272;53.668;9.578;2022-10-16T17:36:21;15.50;99.90
14378;DHT22;7272;53.668;9.578;2022-10-16T17:39:24;15.40;99.90
14378;DHT22;7272;53.668;9.578;2022-10-16T17:42:27;15.20;99.90
14378;DHT22;7272;53.668;9.578;2022-10-16T17:45:29;15.10;99.90
14378;DHT22;7272;53.668;9.578;2022-10-16T17:48:35;15.00;99.90
14378;DHT22;7272;53.668;9.578;2022-10-16T17:51:38;15.00;99.90
14378;DHT22;7272;53.668;9.578;2022-10-16T17:54:40;15.00;99.90
14378;DHT22;7272;53.668;9.578;2022-10-16T17:57:45;14.90;99.90
14378;DHT22;7272;53.668;9.578;2022-10-16T18:00:47;14.80;99.90
14378;DHT22;7272;53.668;9.578;2022-10-16T18:03:50;14.70;99.90
14378;DHT22;7272;53.668;9.578;2022-10-16T18:06:52;14.60;99.90
14378;DHT22;7272;53.668;9.578;2022-10-16T18:09:55;14.50;99.90
14378;DHT22;7272;53.668;9.578;2022-10-16T18:12:59;14.40;99.90
14378;DHT22;7272;53.668;9.578;2022-10-16T18:16:02;14.60;99.90
14378;DHT22;7272;53.668;9.578;2022-10-16T18:19:04;14.40;99.90
14378;DHT22;7272;53.668;9.578;2022-10-16T18:22:07;14.10;99.90
14378;DHT22;7272;53.668;9.578;2022-10-16T18:25:09;13.80;99.90
14378;DHT22;7272;53.668;9.578;2022-10-16T18:28:12;13.70;99.90
14378;DHT22;7272;53.668;9.578;2022-10-16T18:31:16;13.70;99.90
14378;DHT22;7272;53.668;9.578;2022-10-16T18:34:19;13.70;99.90
14378;DHT22;7272;53.668;9.578;2022-10-16T18:37:21;13.70;99.90
14378;DHT22;7272;53.668;9.578;2022-10-16T18:40:23;13.70;99.90
14378;DHT22;7272;53.668;9.578;2022-10-16T18:43:27;13.80;99.90
14378;DHT22;7272;53.668;9.578;2022-10-16T18:46:29;13.70;99.90
14378;DHT22;7272;53.668;9.578;2022-10-16T18:49:32;13.60;99.90
14378;DHT22;7272;53.668;9.578;2022-10-16T18:52:34;13.60;99.90
14378;DHT22;7272;53.668;9.578;2022-10-16T18:55:36;13.50;99.90
14378;DHT22;7272;53.668;9.578;2022-10-16T18:58:40;13.50;99.90
14378;DHT22;7272;53.668;9.578;2022-10-16T19:01:44;13.40;99.90
14378;DHT22;7272;53.668;9.578;2022-10-16T19:04:47;13.30;99.90
14378;DHT22;7272;53.668;9.578;2022-10-16T19:07:50;13.20;99.90
14378;DHT22;7272;53.668;9.578;2022-10-16T19:10:52;13.20;99.90
14378;DHT22;7272;53.668;9.578;2022-10-16T19:13:56;13.20;99.90
14378;DHT22;7272;53.668;9.578;2022-10-16T19:16:59;13.20;99.90
14378;DHT22;7272;53.668;9.578;2022-10-16T19:20:01;13.20;99.90
14378;DHT22;7272;53.668;9.578;2022-10-16T19:23:04;13.10;99.90
14378;DHT22;7272;53.668;9.578;2022-10-16T19:26:08;12.90;99.90
14378;DHT22;7272;53.668;9.578;2022-10-16T19:29:12;12.70;99.90
14378;DHT22;7272;53.668;9.578;2022-10-16T19:32:14;12.60;99.90
14378;DHT22;7272;53.668;9.578;2022-10-16T19:35:16;12.80;99.90
14378;DHT22;7272;53.668;9.578;2022-10-16T19:38:19;12.90;99.90
14378;DHT22;7272;53.668;9.578;2022-10-16T19:41:21;12.90;99.90
14378;DHT22;7272;53.668;9.578;2022-10-16T19:44:25;12.80;99.90
14378;DHT22;7272;53.668;9.578;2022-10-16T19:47:28;12.70;99.90
14378;DHT22;7272;53.668;9.578;2022-10-16T19:50:30;12.70;99.90
14378;DHT22;7272;53.668;9.578;2022-10-16T19:53:32;12.70;99.90